Flight Track Log - Related Links

Times and Time Zones

All times are in EDT time to prevent confusion due to time zone crossing. See the KAP927 flight status page for this flight to view local times or setup timezone preferences in your user account.

Time Position Orientation Groundspeed Altitude Reporting Facility
EDT Latitude Longitude Course Direction KTS MPH feet Rate Location/Type
Fri 02:53:20 PM 42.6961 -73.8411 216° Southwest 116 133 1,700  Level Boston Center
Fri 02:54:26 PM 42.6789 -73.8833 241° Southwest 120 138 2,400 472 Climbing Boston Center
Fri 02:55:27 PM 42.6994 -73.9119 314° West 139 160 2,700 443 Climbing Boston Center
Fri 02:56:28 PM 42.7389 -73.9131 359° North 141 162 3,300 545 Climbing Boston Center
Fri 02:57:28 PM 42.7786 -73.9139 359° North 141 162 3,800 496 Climbing Boston Center
Fri 02:58:29 PM 42.8203 -73.9147 359° North 147 169 4,300 541 Climbing Boston Center
Fri 02:59:30 PM 42.8619 -73.9158 359° North 153 176 4,900 574 Climbing Boston Center
Fri 03:00:24 PM 42.8994 -73.9197 356° North 151 174 5,400 574 Climbing Boston Center
Fri 03:01:25 PM 42.9389 -73.9178 North 141 162 6,000 590 Climbing Boston Center
Fri 03:02:26 PM 42.9764 -73.9242 353° North 136 157 6,600 567 Climbing Boston Center
Fri 03:03:32 PM 43.0222 -73.9225 North 141 162 7,200 541 Climbing Boston Center
Fri 03:04:39 PM 43.0661 -73.9236 359° North 149 171 7,800 528 Climbing Boston Center
Fri 03:05:37 PM 43.1078 -73.9247 359° North 175 201 8,300 508 Climbing Boston Center
Fri 03:06:37 PM 43.1450 -73.9283 356° North 154 177 8,800 400 Climbing Boston Center
Fri 03:07:37 PM 43.1822 -73.9578 330° Northwest 139 160 9,100 150 Climbing Boston Center
Fri 03:08:37 PM 43.2150 -73.9928 322° Northwest 159 183 9,100 -50 Level Boston Center
Fri 03:09:37 PM 43.2583 -74.0336 326° Northwest 175 201 9,000 -45 Descending Boston Center
Fri 03:10:49 PM 43.3036 -74.0806 323° Northwest 170 196 9,000  Level Boston Center
Fri 03:11:49 PM 43.3406 -74.1158 325° Northwest 170 196 9,000  Level Boston Center
Fri 03:12:49 PM 43.3756 -74.1511 324° Northwest 170 196 9,000  Level Boston Center
Fri 03:13:49 PM 43.4083 -74.1833 324° Northwest 170 196 9,000  Level Boston Center
Fri 03:14:49 PM 43.4433 -74.2158 326° Northwest 160 184 9,000 50 Level Boston Center
Fri 03:15:49 PM 43.4781 -74.2483 326° Northwest 155 178 9,100  Climbing Boston Center
Fri 03:16:49 PM 43.5108 -74.2836 322° Northwest 155 178 9,000 -50 Descending Boston Center
Fri 03:17:49 PM 43.5478 -74.3164 327° Northwest 155 178 9,000 50 Level Boston Center
Fri 03:18:49 PM 43.5806 -74.3517 322° Northwest 149 171 9,100  Climbing Boston Center
Fri 03:19:49 PM 43.6156 -74.3872 324° Northwest 149 171 9,000 -50 Descending Boston Center
Fri 03:20:49 PM 43.6503 -74.4228 323° Northwest 149 171 9,000  Level Boston Center
Fri 03:21:49 PM 43.6872 -74.4556 327° Northwest 149 171 9,000 50 Level Boston Center
Fri 03:22:49 PM 43.7242 -74.4942 323° Northwest 149 171 9,100  Climbing Boston Center
Fri 03:23:49 PM 43.7589 -74.5269 326° Northwest 149 171 9,000 -50 Descending Boston Center
Fri 03:24:49 PM 43.7936 -74.5628 323° Northwest 154 177 9,000  Level Boston Center
Fri 03:25:49 PM 43.8306 -74.6014 323° Northwest 154 177 9,000  Level Boston Center
Fri 03:26:49 PM 43.8694 -74.6317 331° Northwest 154 177 9,000 -50 Level Boston Center
Fri 03:27:49 PM 43.9128 -74.6564 338° Northwest 154 177 8,900  Descending Boston Center
Fri 03:28:49 PM 43.9561 -74.6811 338° Northwest 159 183 9,000 50 Climbing Boston Center
Fri 03:29:49 PM 43.9992 -74.7114 333° Northwest 165 190 9,000 -50 Level Boston Center
Fri 03:30:49 PM 44.0406 -74.7361 337° Northwest 165 190 8,900  Descending Boston Center
Fri 03:31:49 PM 44.0817 -74.7581 339° North 165 190 9,000 50 Climbing Boston Center
Fri 03:32:49 PM 44.1247 -74.7886 333° Northwest 165 190 9,000 -50 Level Boston Center
Fri 03:33:49 PM 44.1619 -74.8103 337° Northwest 165 190 8,900 -250 Descending Boston Center
Fri 03:34:49 PM 44.2072 -74.8353 338° Northwest 165 190 8,500 -500 Descending Boston Center
Fri 03:35:49 PM 44.2628 -74.8722 335° Northwest 181 208 7,900 -550 Descending Boston Center
Fri 03:36:49 PM 44.3122 -74.9006 338° Northwest 192 221 7,400 -550 Descending Boston Center
Fri 03:37:49 PM 44.3614 -74.9344 334° Northwest 192 221 6,800 -550 Descending Boston Center
Fri 03:38:49 PM 44.4089 -74.9597 339° North 192 221 6,300 -600 Descending Boston Center
Fri 03:39:49 PM 44.4517 -74.9936 331° Northwest 187 215 5,600 -600 Descending Boston Center
Fri 03:40:49 PM 44.4972 -75.0189 338° Northwest 182 209 5,100 -500 Descending Boston Center
Fri 03:41:49 PM 44.5419 -75.0586 328° Northwest 177 204 4,600 -450 Descending Boston Center
Fri 03:42:49 PM 44.5894 -75.0811 341° North 177 204 4,200 -400 Descending Boston Center
Fri 03:43:49 PM 44.6347 -75.1094 336° Northwest 172 198 3,800 -455 Descending Boston Center
Fri 03:45:01 PM 44.6881 -75.1469 333° Northwest 172 198 3,200 -273 Descending Boston Center
Fri 03:46:01 PM 44.7311 -75.1753 335° Northwest 172 198 3,200  Level Boston Center
Fri 03:47:01 PM 44.7761 -75.2064 334° Northwest 172 198 3,200  Level Boston Center
Fri 03:48:01 PM 44.8233 -75.2381 335° Northwest 172 198 3,200  Level Boston Center
Fri 03:49:01 PM 44.6842 -75.4650 229° Southwest 172 198 3,200  Level Boston Center
Fri 03:50:01 PM 44.6842 -75.4650 180° South 172 198 3,200  Level Boston Center

Login

Don't have an account? Register now (free) for customized features, flight alerts, and more!